Ketchikan International Airport Ketchikan US
ICAO: PAKT
IATA: KTN
Category: Medium
Scheduled Services:

Elevation: 89 ft
TransAlt. 18000 ft.

Airport Communications:
ATIS:119.9
ANCHORAGE CNTR:118.5
CTAF:123.6
RDO:123.6
UNICOM:122.95

PAKT Zoom In..

If you have problems with the map follow the link
https://www.worldairports.se/pages/airport.php?
ICAO=PAKT

Runways:

(A) RW 11 length 7500 ft width 150 ft
ILS 109.30 / hdg 115

(B) RW 29 length 7500 ft width 150 ft
---- / hdg 295

Location; PAKT
Day. 06 / Time. 00.56 Zulu
* Altimeter: 30.06
* Temperature: -01° c. -30.2°f.
* Wind from: PAK° Speed T kn.
Dewpoint: -01° c.
Visibility: 2 Statute Miles.
Clouds: Broken 200 ft.
Conditions: Mist.

PAKT 060056Z 00000KT 2SM BR BKN002 M01/M01 A3006 RMK HARBOR WIND VRB05KT VIS 1V3 T10061011 VIA AUTODIAL


Wind From PAK°
Speed T kn.

 
 
jpsmedia worldairports.se 2019   terms of use